createdAt,value
2023-01-29T00:00:44.070Z,995.76
2023-01-29T00:01:44.096Z,995.79
2023-01-29T00:02:44.113Z,995.79
2023-01-29T00:03:44.062Z,995.77
2023-01-29T00:04:44.044Z,995.80
2023-01-29T00:05:44.031Z,995.83
2023-01-29T00:06:44.020Z,995.84
2023-01-29T00:07:44.031Z,995.80
2023-01-29T00:08:44.000Z,995.75
2023-01-29T00:09:43.999Z,995.74
2023-01-29T00:10:43.981Z,995.83
2023-01-29T00:11:43.996Z,995.82
2023-01-29T00:12:43.984Z,995.83
2023-01-29T00:13:43.943Z,995.85
2023-01-29T00:14:43.931Z,995.89
2023-01-29T00:15:43.933Z,995.85
2023-01-29T00:16:43.911Z,995.82
2023-01-29T00:17:43.910Z,995.77
2023-01-29T00:18:43.896Z,995.75
2023-01-29T00:19:43.871Z,995.78
2023-01-29T00:20:43.863Z,995.72
2023-01-29T00:21:43.869Z,995.80
2023-01-29T00:22:43.869Z,995.74
2023-01-29T00:23:43.835Z,995.81
2023-01-29T00:24:43.820Z,995.78
2023-01-29T00:25:43.838Z,995.83
2023-01-29T00:26:43.811Z,995.84
2023-01-29T00:27:43.828Z,995.82
2023-01-29T00:28:43.771Z,995.80
2023-01-29T00:29:43.761Z,995.85
2023-01-29T00:30:43.756Z,995.84
2023-01-29T00:31:43.953Z,995.84
2023-01-29T00:32:43.742Z,995.82
2023-01-29T00:33:43.753Z,995.77
2023-01-29T00:34:43.723Z,995.79
2023-01-29T00:35:43.722Z,995.83
2023-01-29T00:36:43.713Z,995.83
2023-01-29T00:37:43.708Z,995.74
2023-01-29T00:38:43.677Z,995.71
2023-01-29T00:39:48.253Z,995.67
2023-01-29T00:40:43.653Z,995.72
2023-01-29T00:41:43.652Z,995.70
2023-01-29T00:42:43.661Z,995.75
2023-01-29T00:43:43.631Z,995.76
2023-01-29T00:44:43.603Z,995.75
2023-01-29T00:45:43.612Z,995.72
2023-01-29T00:46:43.752Z,995.75
2023-01-29T00:47:43.589Z,995.73
2023-01-29T00:48:43.583Z,995.72
2023-01-29T00:49:43.583Z,995.77
2023-01-29T00:50:43.549Z,995.77
2023-01-29T00:51:43.536Z,995.75
2023-01-29T00:52:43.562Z,995.78
2023-01-29T00:53:43.523Z,995.75
2023-01-29T00:54:43.513Z,995.78
2023-01-29T00:55:43.504Z,995.72
2023-01-29T00:56:43.484Z,995.71
2023-01-29T00:57:43.484Z,995.71
2023-01-29T00:58:43.475Z,995.76
2023-01-29T00:59:43.490Z,995.69
2023-01-29T01:00:43.519Z,995.78
2023-01-29T01:01:43.488Z,995.75
2023-01-29T01:02:43.544Z,995.81
2023-01-29T01:03:43.423Z,995.74
2023-01-29T01:04:43.405Z,995.77
2023-01-29T01:05:43.392Z,995.79
2023-01-29T01:06:43.404Z,995.77
2023-01-29T01:07:43.362Z,995.71
2023-01-29T01:08:43.385Z,995.75
2023-01-29T01:09:43.364Z,995.76
2023-01-29T01:10:43.334Z,995.78
2023-01-29T01:11:43.335Z,995.72
2023-01-29T01:12:43.332Z,995.70
2023-01-29T01:13:43.325Z,995.72
2023-01-29T01:14:43.306Z,995.68
2023-01-29T01:15:43.294Z,995.74
2023-01-29T01:16:43.288Z,995.81
2023-01-29T01:17:43.292Z,995.82
2023-01-29T01:18:43.257Z,995.82
2023-01-29T01:19:43.245Z,995.80
2023-01-29T01:20:43.254Z,995.76
2023-01-29T01:21:43.215Z,995.72
2023-01-29T01:22:43.217Z,995.71
2023-01-29T01:23:43.209Z,995.75
2023-01-29T01:24:43.203Z,995.73
2023-01-29T01:25:43.198Z,995.64
2023-01-29T01:26:43.175Z,995.70
2023-01-29T01:27:43.164Z,995.64
2023-01-29T01:28:43.154Z,995.74
2023-01-29T01:29:43.150Z,995.64
2023-01-29T01:30:43.163Z,995.70
2023-01-29T01:31:43.166Z,995.75
2023-01-29T01:32:43.119Z,995.73
2023-01-29T01:33:43.102Z,995.70
2023-01-29T01:34:43.097Z,995.68
2023-01-29T01:35:43.088Z,995.73
2023-01-29T01:36:43.076Z,995.77
2023-01-29T01:37:43.061Z,995.77
2023-01-29T01:38:43.044Z,995.77
2023-01-29T01:39:43.037Z,995.76
2023-01-29T01:40:43.059Z,995.69
2023-01-29T01:41:43.017Z,995.73
2023-01-29T01:42:43.018Z,995.77
2023-01-29T01:43:42.994Z,995.72
2023-01-29T01:44:42.997Z,995.69
2023-01-29T01:45:43.109Z,995.68
2023-01-29T01:46:42.956Z,995.67
2023-01-29T01:47:42.984Z,995.69
2023-01-29T01:48:42.937Z,995.66
2023-01-29T01:49:42.927Z,995.66
2023-01-29T01:50:42.935Z,995.61
2023-01-29T01:51:42.909Z,995.59
2023-01-29T01:52:42.909Z,995.57
2023-01-29T01:53:42.897Z,995.59
2023-01-29T01:54:42.907Z,995.58
2023-01-29T01:55:42.974Z,995.66
2023-01-29T01:56:42.888Z,995.66
2023-01-29T01:57:42.848Z,995.65
2023-01-29T01:58:42.859Z,995.61
2023-01-29T01:59:42.839Z,995.63
2023-01-29T02:00:42.900Z,995.69
2023-01-29T02:01:42.827Z,995.60
2023-01-29T02:02:42.818Z,995.62
2023-01-29T02:03:42.810Z,995.63
2023-01-29T02:04:42.793Z,995.61
2023-01-29T02:05:42.787Z,995.59
2023-01-29T02:06:42.760Z,995.60
2023-01-29T02:07:42.736Z,995.60
2023-01-29T02:08:42.745Z,995.60
2023-01-29T02:09:42.756Z,995.64
2023-01-29T02:10:42.721Z,995.62
2023-01-29T02:11:42.715Z,995.67
2023-01-29T02:12:42.706Z,995.69
2023-01-29T02:13:42.697Z,995.74
2023-01-29T02:14:42.714Z,995.68
2023-01-29T02:15:42.667Z,995.78
2023-01-29T02:16:42.676Z,995.75
2023-01-29T02:17:42.700Z,995.71
2023-01-29T02:18:42.647Z,995.70
2023-01-29T02:19:42.629Z,995.70
2023-01-29T02:20:42.617Z,995.69
2023-01-29T02:21:42.599Z,995.74
2023-01-29T02:22:42.614Z,995.63
2023-01-29T02:23:42.594Z,995.73
2023-01-29T02:24:42.664Z,995.66
2023-01-29T02:25:42.579Z,995.71
2023-01-29T02:26:42.552Z,995.71
2023-01-29T02:27:42.561Z,995.74
2023-01-29T02:28:42.537Z,995.73
2023-01-29T02:29:42.521Z,995.77
2023-01-29T02:30:42.527Z,995.69
2023-01-29T02:31:42.536Z,995.72
2023-01-29T02:32:42.495Z,995.74
2023-01-29T02:33:42.499Z,995.72
2023-01-29T02:34:42.478Z,995.76
2023-01-29T02:35:42.454Z,995.75
2023-01-29T02:36:42.452Z,995.74
2023-01-29T02:37:42.445Z,995.71
2023-01-29T02:38:42.428Z,995.69
2023-01-29T02:39:42.430Z,995.65
2023-01-29T02:40:42.444Z,995.68
2023-01-29T02:41:42.409Z,995.66
2023-01-29T02:42:42.396Z,995.69
2023-01-29T02:43:42.391Z,995.76
2023-01-29T02:44:42.379Z,995.72
2023-01-29T02:45:42.431Z,995.71
2023-01-29T02:46:42.355Z,995.72
2023-01-29T02:47:42.353Z,995.71
2023-01-29T02:48:42.346Z,995.74
2023-01-29T02:49:42.322Z,995.78
2023-01-29T02:50:42.334Z,995.78
2023-01-29T02:51:42.308Z,995.70
2023-01-29T02:52:42.318Z,995.65
2023-01-29T02:53:42.301Z,995.68
2023-01-29T02:54:42.280Z,995.67
2023-01-29T02:55:42.266Z,995.63
2023-01-29T02:56:42.251Z,995.66
2023-01-29T02:57:42.255Z,995.59
2023-01-29T02:58:42.224Z,995.61
2023-01-29T02:59:42.218Z,995.65
2023-01-29T03:00:42.222Z,995.61
2023-01-29T03:01:42.195Z,995.62
2023-01-29T03:02:42.213Z,995.58
2023-01-29T03:03:42.194Z,995.62
2023-01-29T03:04:42.174Z,995.62
2023-01-29T03:05:42.182Z,995.58
2023-01-29T03:06:42.143Z,995.62
2023-01-29T03:07:42.132Z,995.67
2023-01-29T03:08:42.133Z,995.63
2023-01-29T03:09:42.123Z,995.63
2023-01-29T03:10:42.124Z,995.68
2023-01-29T03:11:42.112Z,995.63
2023-01-29T03:12:42.082Z,995.65
2023-01-29T03:13:42.067Z,995.73
2023-01-29T03:14:42.082Z,995.68
2023-01-29T03:15:42.043Z,995.69
2023-01-29T03:16:42.154Z,995.70
2023-01-29T03:17:42.056Z,995.64
2023-01-29T03:18:42.044Z,995.64
2023-01-29T03:19:42.021Z,995.61
2023-01-29T03:20:42.001Z,995.63
2023-01-29T03:21:42.013Z,995.63
2023-01-29T03:22:41.993Z,995.62
2023-01-29T03:23:41.982Z,995.65
2023-01-29T03:24:41.972Z,995.66
2023-01-29T03:25:41.943Z,995.62
2023-01-29T03:26:41.959Z,995.67
2023-01-29T03:27:41.953Z,995.65
2023-01-29T03:28:41.943Z,995.61
2023-01-29T03:29:41.914Z,995.66
2023-01-29T03:30:41.933Z,995.65
2023-01-29T03:31:42.058Z,995.58
2023-01-29T03:32:41.892Z,995.66
2023-01-29T03:33:41.874Z,995.65
2023-01-29T03:34:41.874Z,995.66
2023-01-29T03:35:41.853Z,995.65
2023-01-29T03:36:41.844Z,995.59
2023-01-29T03:37:41.834Z,995.59
2023-01-29T03:38:41.823Z,995.61
2023-01-29T03:39:41.814Z,995.61
2023-01-29T03:40:41.815Z,995.64
2023-01-29T03:41:41.784Z,995.60
2023-01-29T03:42:41.786Z,995.58
2023-01-29T03:43:41.784Z,995.59
2023-01-29T03:44:41.772Z,995.48
2023-01-29T03:45:41.786Z,995.59
2023-01-29T03:46:41.750Z,995.61
2023-01-29T03:47:41.740Z,995.64
2023-01-29T03:48:41.727Z,995.60
2023-01-29T03:49:41.714Z,995.61
2023-01-29T03:50:41.703Z,995.62
2023-01-29T03:51:41.682Z,995.62
2023-01-29T03:52:41.696Z,995.63
2023-01-29T03:53:41.655Z,995.61
2023-01-29T03:54:41.664Z,995.61
2023-01-29T03:55:41.644Z,995.67
2023-01-29T03:56:41.624Z,995.60
2023-01-29T03:57:41.618Z,995.64
2023-01-29T03:58:41.622Z,995.66
2023-01-29T03:59:41.645Z,995.66
2023-01-29T04:00:41.605Z,995.64
2023-01-29T04:01:41.632Z,995.61
2023-01-29T04:02:41.584Z,995.62
2023-01-29T04:03:41.554Z,995.63
2023-01-29T04:04:41.563Z,995.65
2023-01-29T04:05:41.573Z,995.70
2023-01-29T04:06:41.534Z,995.67
2023-01-29T04:07:41.544Z,995.63
2023-01-29T04:08:41.535Z,995.67
2023-01-29T04:09:41.496Z,995.77
2023-01-29T04:10:41.493Z,995.74
2023-01-29T04:11:41.476Z,995.75
2023-01-29T04:12:41.484Z,995.75
2023-01-29T04:13:41.465Z,995.71
2023-01-29T04:14:41.474Z,995.73
2023-01-29T04:15:41.435Z,995.65
2023-01-29T04:16:41.459Z,995.75
2023-01-29T04:17:41.420Z,995.62
2023-01-29T04:18:41.404Z,995.65
2023-01-29T04:19:41.402Z,995.68
2023-01-29T04:20:41.377Z,995.69
2023-01-29T04:21:41.414Z,995.73
2023-01-29T04:22:41.355Z,995.73
2023-01-29T04:23:41.385Z,995.68
2023-01-29T04:24:41.360Z,995.67
2023-01-29T04:25:41.345Z,995.70
2023-01-29T04:26:41.330Z,995.69
2023-01-29T04:27:41.328Z,995.68
2023-01-29T04:28:41.315Z,995.71
2023-01-29T04:29:41.307Z,995.74
2023-01-29T04:30:41.329Z,995.75
2023-01-29T04:31:41.428Z,995.76
2023-01-29T04:32:41.253Z,995.75
2023-01-29T04:33:41.276Z,995.79
2023-01-29T04:34:41.266Z,995.81
2023-01-29T04:35:41.232Z,995.80
2023-01-29T04:36:41.224Z,995.81
2023-01-29T04:37:41.226Z,995.80
2023-01-29T04:38:41.206Z,995.83
2023-01-29T04:39:41.197Z,995.78
2023-01-29T04:40:41.187Z,995.79
2023-01-29T04:41:41.185Z,995.75
2023-01-29T04:42:41.157Z,995.66
2023-01-29T04:43:41.149Z,995.81
2023-01-29T04:44:41.146Z,995.72
2023-01-29T04:45:41.136Z,995.74
2023-01-29T04:46:41.144Z,995.75
2023-01-29T04:47:41.198Z,995.74
2023-01-29T04:48:41.118Z,995.70
2023-01-29T04:49:41.105Z,995.73
2023-01-29T04:50:41.066Z,995.75
2023-01-29T04:51:41.096Z,995.77
2023-01-29T04:52:41.056Z,995.77
2023-01-29T04:53:41.044Z,995.71
2023-01-29T04:54:41.060Z,995.65
2023-01-29T04:55:41.027Z,995.70
2023-01-29T04:56:41.013Z,995.68
2023-01-29T04:57:41.004Z,995.70
2023-01-29T04:58:40.994Z,995.64
2023-01-29T04:59:40.986Z,995.69
2023-01-29T05:00:40.995Z,995.72
2023-01-29T05:01:40.987Z,995.80
2023-01-29T05:02:41.013Z,995.73
2023-01-29T05:03:40.978Z,995.71
2023-01-29T05:04:40.937Z,995.67
2023-01-29T05:05:40.931Z,995.70
2023-01-29T05:06:40.909Z,995.65
2023-01-29T05:07:40.926Z,995.64
2023-01-29T05:08:40.911Z,995.68
2023-01-29T05:09:40.886Z,995.68
2023-01-29T05:10:40.875Z,995.69
2023-01-29T05:11:40.867Z,995.66
2023-01-29T05:12:40.865Z,995.73
2023-01-29T05:13:40.844Z,995.66
2023-01-29T05:14:40.835Z,995.66
2023-01-29T05:15:40.922Z,995.73
2023-01-29T05:16:40.824Z,995.70
2023-01-29T05:17:40.808Z,995.71
2023-01-29T05:18:40.795Z,995.66
2023-01-29T05:19:40.770Z,995.72
2023-01-29T05:20:40.768Z,995.63
2023-01-29T05:21:41.218Z,995.71
2023-01-29T05:22:40.759Z,995.71
2023-01-29T05:23:40.728Z,995.72
2023-01-29T05:24:40.738Z,995.72
2023-01-29T05:25:40.719Z,995.73
2023-01-29T05:26:40.715Z,995.71
2023-01-29T05:27:40.719Z,995.70
2023-01-29T05:28:40.688Z,995.75
2023-01-29T05:29:40.679Z,995.79
2023-01-29T05:30:40.711Z,995.85
2023-01-29T05:31:40.717Z,995.86
2023-01-29T05:32:40.648Z,995.86
2023-01-29T05:33:40.645Z,995.90
2023-01-29T05:34:40.652Z,995.88
2023-01-29T05:35:40.599Z,995.83
2023-01-29T05:36:40.606Z,995.76
2023-01-29T05:37:40.590Z,995.83
2023-01-29T05:38:40.588Z,995.78
2023-01-29T05:39:40.576Z,995.73
2023-01-29T05:40:40.549Z,995.74
2023-01-29T05:41:40.551Z,995.77
2023-01-29T05:42:40.548Z,995.67
2023-01-29T05:43:40.555Z,995.68
2023-01-29T05:44:40.546Z,995.71
2023-01-29T05:45:40.500Z,995.68
2023-01-29T05:46:40.541Z,995.71
2023-01-29T05:47:40.479Z,995.65
2023-01-29T05:48:40.488Z,995.55
2023-01-29T05:49:40.489Z,995.45
2023-01-29T05:50:40.470Z,995.44
2023-01-29T05:51:40.460Z,995.39
2023-01-29T05:52:40.431Z,995.35
2023-01-29T05:53:40.431Z,995.31
2023-01-29T05:54:40.440Z,995.26
2023-01-29T05:55:40.410Z,995.33
2023-01-29T05:56:40.432Z,995.23
2023-01-29T05:57:40.390Z,995.24
2023-01-29T05:58:40.398Z,995.26
2023-01-29T05:59:40.409Z,995.23
2023-01-29T06:00:40.357Z,995.28
2023-01-29T06:01:40.374Z,995.32
2023-01-29T06:02:40.398Z,995.30
2023-01-29T06:03:40.320Z,995.38
2023-01-29T06:04:40.336Z,995.39
2023-01-29T06:05:41.407Z,995.40
2023-01-29T06:06:40.314Z,995.48
2023-01-29T06:07:43.741Z,995.41
2023-01-29T06:08:40.291Z,995.44
2023-01-29T06:09:40.265Z,995.41
2023-01-29T06:10:40.264Z,995.49
2023-01-29T06:11:40.272Z,995.43
2023-01-29T06:12:40.250Z,995.46
2023-01-29T06:13:40.224Z,995.42
2023-01-29T06:14:40.244Z,995.44
2023-01-29T06:15:40.204Z,995.43
2023-01-29T06:16:40.347Z,995.47
2023-01-29T06:17:40.190Z,995.51
2023-01-29T06:18:40.186Z,995.53
2023-01-29T06:19:40.161Z,995.52
2023-01-29T06:20:40.141Z,995.51
2023-01-29T06:21:40.152Z,995.58
2023-01-29T06:22:40.127Z,995.51
2023-01-29T06:23:40.145Z,995.53
2023-01-29T06:24:40.120Z,995.57
2023-01-29T06:25:40.096Z,995.59
2023-01-29T06:26:40.104Z,995.60
2023-01-29T06:27:40.098Z,995.59
2023-01-29T06:28:40.080Z,995.56
2023-01-29T06:29:40.062Z,995.59
2023-01-29T06:30:40.100Z,995.57
2023-01-29T06:31:40.240Z,995.58
2023-01-29T06:32:40.163Z,995.59
2023-01-29T06:33:40.003Z,995.66
2023-01-29T06:34:40.021Z,995.65
2023-01-29T06:35:40.001Z,995.64
2023-01-29T06:36:40.027Z,995.62
2023-01-29T06:37:39.996Z,995.66
2023-01-29T06:38:39.971Z,995.64
2023-01-29T06:39:39.965Z,995.67
2023-01-29T06:40:39.952Z,995.56
2023-01-29T06:41:39.932Z,995.63
2023-01-29T06:42:39.946Z,995.62
2023-01-29T06:43:39.902Z,995.64
2023-01-29T06:44:39.902Z,995.63
2023-01-29T06:45:39.913Z,995.65
2023-01-29T06:46:39.889Z,995.66
2023-01-29T06:47:39.872Z,995.60
2023-01-29T06:48:39.853Z,995.60
2023-01-29T06:49:39.873Z,995.63
2023-01-29T06:50:39.834Z,995.59
2023-01-29T06:51:39.841Z,995.62
2023-01-29T06:52:39.832Z,995.63
2023-01-29T06:53:39.802Z,995.66
2023-01-29T06:54:40.514Z,995.63
2023-01-29T06:55:39.821Z,995.64
2023-01-29T06:56:40.878Z,995.74
2023-01-29T06:57:39.774Z,995.74
2023-01-29T06:58:40.447Z,995.77
2023-01-29T06:59:39.767Z,995.76
2023-01-29T07:00:40.801Z,995.76
2023-01-29T07:01:39.747Z,995.75
2023-01-29T07:02:39.831Z,995.76
2023-01-29T07:03:39.724Z,995.77
2023-01-29T07:04:40.363Z,995.77
2023-01-29T07:05:39.692Z,995.73
2023-01-29T07:06:40.296Z,995.71
2023-01-29T07:07:39.685Z,995.70
2023-01-29T07:08:39.924Z,995.75
2023-01-29T07:09:39.656Z,995.73
2023-01-29T07:10:39.943Z,995.75
2023-01-29T07:11:39.633Z,995.77
2023-01-29T07:12:39.603Z,995.71
2023-01-29T07:13:39.604Z,995.70
2023-01-29T07:14:39.614Z,995.66
2023-01-29T07:15:39.596Z,995.63
2023-01-29T07:16:39.606Z,995.73
2023-01-29T07:17:39.600Z,995.75
2023-01-29T07:18:39.555Z,995.79
2023-01-29T07:19:39.559Z,995.81
2023-01-29T07:20:39.553Z,995.77
2023-01-29T07:21:39.524Z,995.80
2023-01-29T07:22:39.524Z,995.84
2023-01-29T07:23:39.508Z,995.76
2023-01-29T07:24:39.512Z,995.76
2023-01-29T07:25:39.473Z,995.77
2023-01-29T07:26:39.495Z,995.80
2023-01-29T07:27:39.465Z,995.80
2023-01-29T07:28:39.480Z,995.85
2023-01-29T07:29:39.460Z,995.88
2023-01-29T07:30:39.451Z,995.86
2023-01-29T07:31:39.485Z,995.89
2023-01-29T07:32:39.405Z,995.89
2023-01-29T07:33:39.401Z,995.91
2023-01-29T07:34:39.395Z,995.90
2023-01-29T07:35:39.376Z,995.91
2023-01-29T07:36:39.379Z,995.88
2023-01-29T07:37:39.353Z,995.92
2023-01-29T07:38:39.364Z,995.94
2023-01-29T07:39:39.333Z,995.89
2023-01-29T07:40:39.314Z,995.95
2023-01-29T07:41:39.324Z,995.97
2023-01-29T07:42:39.295Z,996.02
2023-01-29T07:43:39.309Z,995.95
2023-01-29T07:44:39.305Z,996.02
2023-01-29T07:45:39.305Z,996.02
2023-01-29T07:46:39.291Z,996.04
2023-01-29T07:47:39.271Z,996.02
2023-01-29T07:48:39.271Z,996.02
2023-01-29T07:49:39.225Z,996.07
2023-01-29T07:50:39.218Z,996.01
2023-01-29T07:51:39.217Z,996.01
2023-01-29T07:52:39.214Z,996.12
2023-01-29T07:53:39.195Z,996.03
2023-01-29T07:54:39.195Z,996.07
2023-01-29T07:55:39.174Z,996.11
2023-01-29T07:56:39.164Z,996.11
2023-01-29T07:57:39.144Z,996.09
2023-01-29T07:58:39.175Z,996.14
2023-01-29T07:59:39.130Z,996.15
2023-01-29T08:00:39.131Z,996.07
2023-01-29T08:01:39.095Z,996.21
2023-01-29T08:02:39.098Z,996.12
2023-01-29T08:03:39.125Z,996.16
2023-01-29T08:04:39.075Z,996.10
2023-01-29T08:05:39.060Z,996.07
2023-01-29T08:06:39.075Z,996.08
2023-01-29T08:07:39.064Z,996.10
2023-01-29T08:08:39.025Z,996.12
2023-01-29T08:09:39.032Z,996.11
2023-01-29T08:10:39.052Z,996.10
2023-01-29T08:11:39.969Z,996.11
2023-01-29T08:12:39.023Z,996.06
2023-01-29T08:13:39.075Z,996.08
2023-01-29T08:14:38.985Z,996.06
2023-01-29T08:15:39.671Z,996.14
2023-01-29T08:16:39.025Z,996.17
2023-01-29T08:17:56.045Z,996.08
2023-01-29T08:18:39.936Z,996.21
2023-01-29T08:19:39.624Z,996.16
2023-01-29T08:20:38.926Z,996.20
2023-01-29T08:21:38.905Z,996.13
2023-01-29T08:22:38.906Z,996.23
2023-01-29T08:23:38.873Z,996.22
2023-01-29T08:24:53.365Z,996.25
2023-01-29T08:25:39.902Z,996.31
2023-01-29T08:26:38.876Z,996.29
2023-01-29T08:27:38.946Z,996.31
2023-01-29T08:28:38.862Z,996.27
2023-01-29T08:29:38.836Z,996.28
2023-01-29T08:30:38.848Z,996.29
2023-01-29T08:31:38.880Z,996.22
2023-01-29T08:32:38.819Z,996.28
2023-01-29T08:33:39.527Z,996.30
2023-01-29T08:34:38.770Z,996.27
2023-01-29T08:35:38.768Z,996.28
2023-01-29T08:36:38.755Z,996.25
2023-01-29T08:37:38.739Z,996.34
2023-01-29T08:38:38.757Z,996.33
2023-01-29T08:39:38.710Z,996.34
2023-01-29T08:40:38.718Z,996.32
2023-01-29T08:41:38.702Z,996.36
2023-01-29T08:42:38.687Z,996.33
2023-01-29T08:43:38.713Z,996.32
2023-01-29T08:44:38.668Z,996.42
2023-01-29T08:45:38.702Z,996.44
2023-01-29T08:46:38.646Z,996.40
2023-01-29T08:47:38.629Z,996.43
2023-01-29T08:48:38.654Z,996.39
2023-01-29T08:49:38.634Z,996.43
2023-01-29T08:50:38.621Z,996.40
2023-01-29T08:51:38.598Z,996.30
2023-01-29T08:52:38.577Z,996.34
2023-01-29T08:53:38.594Z,996.28
2023-01-29T08:54:38.578Z,996.26
2023-01-29T08:55:38.568Z,996.29
2023-01-29T08:56:38.549Z,996.33
2023-01-29T08:57:38.530Z,996.31
2023-01-29T08:58:38.536Z,996.34
2023-01-29T08:59:38.538Z,996.29
2023-01-29T09:00:38.510Z,996.32
2023-01-29T09:01:38.487Z,996.33
2023-01-29T09:02:38.547Z,996.31
2023-01-29T09:03:38.467Z,996.30
2023-01-29T09:04:38.457Z,996.29
2023-01-29T09:05:38.444Z,996.33
2023-01-29T09:06:38.454Z,996.36
2023-01-29T09:07:38.427Z,996.29
2023-01-29T09:08:38.428Z,996.29
2023-01-29T09:09:38.403Z,996.32
2023-01-29T09:10:38.411Z,996.37
2023-01-29T09:11:38.395Z,996.44
2023-01-29T09:12:38.378Z,996.43
2023-01-29T09:13:38.353Z,996.44
2023-01-29T09:14:38.364Z,996.44
2023-01-29T09:15:38.349Z,996.46
2023-01-29T09:16:38.411Z,996.46
2023-01-29T09:17:38.330Z,996.41
2023-01-29T09:18:38.340Z,996.40
2023-01-29T09:19:38.300Z,996.37
2023-01-29T09:20:38.312Z,996.38
2023-01-29T09:21:38.294Z,996.41
2023-01-29T09:22:38.290Z,996.38
2023-01-29T09:23:38.267Z,996.43
2023-01-29T09:24:38.242Z,996.46
2023-01-29T09:25:38.256Z,996.46
2023-01-29T09:26:38.284Z,996.46
2023-01-29T09:27:38.225Z,996.47
2023-01-29T09:28:38.228Z,996.51
2023-01-29T09:29:38.243Z,996.51
2023-01-29T09:30:38.361Z,996.51
2023-01-29T09:31:38.273Z,996.58
2023-01-29T09:32:52.697Z,996.52
2023-01-29T09:33:39.179Z,996.58
2023-01-29T09:34:38.155Z,996.43
2023-01-29T09:35:38.143Z,996.53
2023-01-29T09:36:38.127Z,996.49
2023-01-29T09:37:38.107Z,996.50
2023-01-29T09:38:38.108Z,996.49
2023-01-29T09:39:38.090Z,996.44
2023-01-29T09:40:38.086Z,996.42
2023-01-29T09:41:38.083Z,996.43
2023-01-29T09:42:38.067Z,996.38
2023-01-29T09:43:38.072Z,996.36
2023-01-29T09:44:38.037Z,996.34
2023-01-29T09:45:38.023Z,996.32
2023-01-29T09:46:38.011Z,996.30
2023-01-29T09:47:38.008Z,996.33
2023-01-29T09:48:38.005Z,996.30
2023-01-29T09:49:37.987Z,996.30
2023-01-29T09:50:38.019Z,996.25
2023-01-29T09:51:37.986Z,996.25
2023-01-29T09:52:37.941Z,996.16
2023-01-29T09:53:37.936Z,996.14
2023-01-29T09:54:37.954Z,996.11
2023-01-29T09:55:37.923Z,995.98
2023-01-29T09:56:37.908Z,995.94
2023-01-29T09:57:37.890Z,995.84
2023-01-29T09:58:37.918Z,995.84
2023-01-29T09:59:37.872Z,995.85
2023-01-29T10:00:37.882Z,995.85
2023-01-29T10:01:37.987Z,995.81
2023-01-29T10:02:37.840Z,995.83
2023-01-29T10:03:37.831Z,995.84
2023-01-29T10:04:37.848Z,995.84
2023-01-29T10:05:37.809Z,995.77
2023-01-29T10:06:37.822Z,995.70
2023-01-29T10:07:37.801Z,995.68
2023-01-29T10:08:37.782Z,995.66
2023-01-29T10:09:37.787Z,995.58
2023-01-29T10:10:37.762Z,995.66
2023-01-29T10:11:37.758Z,995.63
2023-01-29T10:12:37.755Z,995.59
2023-01-29T10:13:37.749Z,995.59
2023-01-29T10:14:37.723Z,995.65
2023-01-29T10:15:37.729Z,995.66
2023-01-29T10:16:37.738Z,995.66
2023-01-29T10:17:37.688Z,995.64
2023-01-29T10:18:37.683Z,995.66
2023-01-29T10:19:37.671Z,995.62
2023-01-29T10:20:37.686Z,995.57
2023-01-29T10:21:37.660Z,995.63
2023-01-29T10:22:37.641Z,995.65
2023-01-29T10:23:37.621Z,995.62
2023-01-29T10:24:37.615Z,995.62
2023-01-29T10:25:37.631Z,995.70
2023-01-29T10:26:37.667Z,995.70
2023-01-29T10:27:37.582Z,995.76
2023-01-29T10:28:37.563Z,995.85
2023-01-29T10:29:37.572Z,995.82
2023-01-29T10:30:37.573Z,995.82
2023-01-29T10:31:37.670Z,995.77
2023-01-29T10:32:37.542Z,995.77
2023-01-29T10:33:49.264Z,995.78
2023-01-29T10:34:38.505Z,995.75
2023-01-29T10:35:37.505Z,995.71
2023-01-29T10:36:37.493Z,995.71
2023-01-29T10:37:37.493Z,995.72
2023-01-29T10:38:37.468Z,995.68
2023-01-29T10:39:37.462Z,995.72
2023-01-29T10:40:37.452Z,995.65
2023-01-29T10:41:37.451Z,995.73
2023-01-29T10:42:37.430Z,995.72
2023-01-29T10:43:37.411Z,995.78
2023-01-29T10:44:37.407Z,995.78
2023-01-29T10:45:37.404Z,995.84
2023-01-29T10:46:37.387Z,995.83
2023-01-29T10:47:37.423Z,995.79
2023-01-29T10:48:37.370Z,995.83
2023-01-29T10:49:37.354Z,995.83
2023-01-29T10:50:37.364Z,995.77
2023-01-29T10:51:37.335Z,995.69
2023-01-29T10:52:37.324Z,995.65
2023-01-29T10:53:37.331Z,995.65
2023-01-29T10:54:37.298Z,995.59
2023-01-29T10:55:37.305Z,995.62
2023-01-29T10:56:37.265Z,995.59
2023-01-29T10:57:37.313Z,995.60
2023-01-29T10:58:37.294Z,995.70
2023-01-29T10:59:37.266Z,995.71
2023-01-29T11:00:37.235Z,995.67
2023-01-29T11:01:37.257Z,995.63
2023-01-29T11:02:37.236Z,995.69
2023-01-29T11:03:37.279Z,995.65
2023-01-29T11:04:37.219Z,995.68
2023-01-29T11:05:37.174Z,995.75
2023-01-29T11:06:37.172Z,995.65
2023-01-29T11:07:37.154Z,995.75
2023-01-29T11:08:37.146Z,995.71
2023-01-29T11:09:37.155Z,995.70
2023-01-29T11:10:37.144Z,995.73
2023-01-29T11:11:37.126Z,995.68
2023-01-29T11:12:37.097Z,995.70
2023-01-29T11:13:37.115Z,995.67
2023-01-29T11:14:37.086Z,995.68
2023-01-29T11:15:37.072Z,995.63
2023-01-29T11:16:37.158Z,995.64
2023-01-29T11:17:37.069Z,995.64
2023-01-29T11:18:37.044Z,995.61
2023-01-29T11:19:37.073Z,995.64
2023-01-29T11:20:37.015Z,995.59
2023-01-29T11:21:37.016Z,995.60
2023-01-29T11:22:37.015Z,995.54
2023-01-29T11:23:36.999Z,995.52
2023-01-29T11:24:36.977Z,995.52
2023-01-29T11:25:37.022Z,995.45
2023-01-29T11:26:37.035Z,995.45
2023-01-29T11:27:36.960Z,995.46
2023-01-29T11:28:36.947Z,995.43
2023-01-29T11:29:36.932Z,995.36
2023-01-29T11:30:36.940Z,995.30
2023-01-29T11:31:37.046Z,995.30
2023-01-29T11:32:36.906Z,995.28
2023-01-29T11:33:36.885Z,995.20
2023-01-29T11:34:36.883Z,995.27
2023-01-29T11:35:36.860Z,995.28
2023-01-29T11:36:36.874Z,995.29
2023-01-29T11:37:36.852Z,995.33
2023-01-29T11:38:36.843Z,995.25
2023-01-29T11:39:36.828Z,995.23
2023-01-29T11:40:36.820Z,995.23
2023-01-29T11:41:36.808Z,995.16
2023-01-29T11:42:36.787Z,995.15
2023-01-29T11:43:37.395Z,995.17
2023-01-29T11:44:36.780Z,995.13
2023-01-29T11:45:36.758Z,995.16
2023-01-29T11:46:36.776Z,995.15
2023-01-29T11:47:36.746Z,995.24
2023-01-29T11:48:36.746Z,995.27
2023-01-29T11:49:36.721Z,995.30
2023-01-29T11:50:36.697Z,995.28
2023-01-29T11:51:36.693Z,995.27
2023-01-29T11:52:36.707Z,995.27
2023-01-29T11:53:36.707Z,995.25
2023-01-29T11:54:36.661Z,995.23
2023-01-29T11:55:49.708Z,995.20
2023-01-29T11:56:37.638Z,995.18
2023-01-29T11:57:36.631Z,995.23
2023-01-29T11:58:36.638Z,995.17
2023-01-29T11:59:36.598Z,995.12
2023-01-29T12:00:36.627Z,995.05
2023-01-29T12:01:36.598Z,995.04
2023-01-29T12:02:36.599Z,995.00
2023-01-29T12:03:36.587Z,994.96
2023-01-29T12:04:36.541Z,994.96
2023-01-29T12:05:36.591Z,994.92
2023-01-29T12:06:36.537Z,994.91
2023-01-29T12:07:36.549Z,994.88
2023-01-29T12:08:36.520Z,994.83
2023-01-29T12:09:36.518Z,994.85
2023-01-29T12:10:36.494Z,994.76
2023-01-29T12:11:36.498Z,994.71
2023-01-29T12:12:36.461Z,994.72
2023-01-29T12:13:36.480Z,994.77
2023-01-29T12:14:36.449Z,994.61
2023-01-29T12:15:36.451Z,994.61
2023-01-29T12:16:36.437Z,994.62
2023-01-29T12:17:36.411Z,994.63
2023-01-29T12:18:36.425Z,994.63
2023-01-29T12:19:36.397Z,994.56
2023-01-29T12:20:36.381Z,994.53
2023-01-29T12:21:36.370Z,994.50
2023-01-29T12:22:36.382Z,994.44
2023-01-29T12:23:36.377Z,994.43
2023-01-29T12:24:36.360Z,994.38
2023-01-29T12:25:36.350Z,994.33
2023-01-29T12:26:36.409Z,994.37
2023-01-29T12:27:36.331Z,994.27
2023-01-29T12:28:36.304Z,994.25